createdAt,value
2023-03-15T00:00:26.274Z,0.00
2023-03-15T00:01:26.278Z,0.00
2023-03-15T00:02:26.344Z,0.00
2023-03-15T00:03:26.317Z,0.00
2023-03-15T00:04:26.289Z,0.00
2023-03-15T00:05:26.281Z,0.00
2023-03-15T00:06:26.295Z,0.00
2023-03-15T00:07:26.281Z,0.00
2023-03-15T00:08:26.283Z,0.00
2023-03-15T00:09:26.316Z,0.00
2023-03-15T00:10:26.313Z,0.00
2023-03-15T00:11:26.290Z,0.00
2023-03-15T00:12:26.290Z,0.00
2023-03-15T00:13:26.288Z,0.00
2023-03-15T00:14:26.301Z,0.00
2023-03-15T00:15:26.298Z,0.00
2023-03-15T00:16:26.293Z,0.00
2023-03-15T00:17:26.302Z,0.00
2023-03-15T00:18:26.305Z,0.00
2023-03-15T00:19:26.300Z,0.00
2023-03-15T00:20:26.305Z,0.00
2023-03-15T00:21:26.305Z,0.00
2023-03-15T00:22:26.304Z,0.00
2023-03-15T00:23:26.306Z,0.00
2023-03-15T00:24:26.310Z,0.00
2023-03-15T00:25:26.324Z,0.00
2023-03-15T00:26:26.314Z,0.00
2023-03-15T00:27:26.313Z,0.00
2023-03-15T00:28:26.308Z,0.00
2023-03-15T00:29:26.317Z,0.00
2023-03-15T00:30:26.320Z,0.00
2023-03-15T00:31:26.392Z,0.00
2023-03-15T00:32:26.343Z,0.00
2023-03-15T00:33:26.321Z,0.00
2023-03-15T00:34:26.326Z,0.00
2023-03-15T00:35:26.317Z,0.00
2023-03-15T00:36:26.327Z,0.00
2023-03-15T00:37:26.326Z,0.00
2023-03-15T00:38:26.323Z,0.00
2023-03-15T00:39:26.331Z,0.00
2023-03-15T00:40:26.324Z,0.00
2023-03-15T00:41:26.349Z,0.00
2023-03-15T00:42:26.327Z,0.00
2023-03-15T00:43:26.337Z,0.00
2023-03-15T00:44:26.343Z,0.00
2023-03-15T00:45:26.353Z,0.00
2023-03-15T00:46:26.391Z,0.00
2023-03-15T00:47:26.339Z,0.00
2023-03-15T00:48:26.333Z,0.00
2023-03-15T00:49:26.337Z,0.00
2023-03-15T00:50:26.358Z,0.00
2023-03-15T00:51:26.343Z,0.00
2023-03-15T00:52:26.347Z,0.00
2023-03-15T00:53:26.348Z,0.00
2023-03-15T00:54:26.341Z,0.00
2023-03-15T00:55:26.348Z,0.00
2023-03-15T00:56:26.353Z,0.00
2023-03-15T00:57:26.362Z,0.00
2023-03-15T00:58:27.561Z,0.00
2023-03-15T00:59:26.352Z,0.00
2023-03-15T01:00:26.346Z,0.00
2023-03-15T01:01:26.426Z,0.00
2023-03-15T01:02:26.365Z,0.00
2023-03-15T01:03:26.348Z,0.00
2023-03-15T01:04:26.352Z,0.00
2023-03-15T01:05:26.354Z,0.00
2023-03-15T01:06:26.355Z,0.00
2023-03-15T01:07:26.368Z,0.00
2023-03-15T01:08:26.381Z,0.00
2023-03-15T01:09:26.361Z,0.00
2023-03-15T01:10:26.362Z,0.00
2023-03-15T01:11:26.385Z,0.00
2023-03-15T01:12:26.358Z,0.00
2023-03-15T01:13:26.382Z,0.00
2023-03-15T01:14:26.387Z,0.00
2023-03-15T01:15:26.369Z,0.00
2023-03-15T01:16:26.438Z,0.00
2023-03-15T01:17:26.369Z,0.00
2023-03-15T01:18:26.363Z,0.00
2023-03-15T01:19:26.371Z,0.00
2023-03-15T01:20:26.364Z,0.00
2023-03-15T01:21:26.389Z,0.00
2023-03-15T01:22:26.373Z,0.00
2023-03-15T01:23:26.366Z,0.00
2023-03-15T01:24:26.372Z,0.00
2023-03-15T01:25:26.375Z,0.00
2023-03-15T01:26:26.382Z,0.00
2023-03-15T01:27:26.379Z,0.00
2023-03-15T01:28:26.374Z,0.00
2023-03-15T01:29:26.406Z,0.00
2023-03-15T01:30:26.376Z,0.00
2023-03-15T01:31:26.443Z,0.00
2023-03-15T01:32:26.421Z,0.00
2023-03-15T01:33:26.389Z,0.00
2023-03-15T01:34:26.378Z,0.00
2023-03-15T01:35:26.389Z,0.00
2023-03-15T01:36:26.392Z,0.00
2023-03-15T01:37:26.393Z,0.00
2023-03-15T01:38:26.379Z,0.00
2023-03-15T01:39:26.389Z,0.00
2023-03-15T01:40:26.387Z,0.00
2023-03-15T01:41:26.398Z,0.00
2023-03-15T01:42:26.392Z,0.00
2023-03-15T01:43:26.408Z,0.00
2023-03-15T01:44:26.386Z,0.00
2023-03-15T01:45:26.413Z,0.00
2023-03-15T01:46:26.536Z,0.00
2023-03-15T01:47:26.387Z,0.00
2023-03-15T01:48:26.389Z,0.00
2023-03-15T01:49:26.392Z,0.00
2023-03-15T01:50:26.385Z,0.00
2023-03-15T01:51:26.396Z,0.00
2023-03-15T01:52:26.393Z,0.00
2023-03-15T01:53:26.391Z,0.00
2023-03-15T01:54:26.388Z,0.00
2023-03-15T01:55:26.395Z,0.00
2023-03-15T01:56:26.390Z,0.00
2023-03-15T01:57:26.397Z,0.00
2023-03-15T01:58:26.397Z,0.00
2023-03-15T01:59:26.403Z,0.00
2023-03-15T02:00:26.391Z,0.00
2023-03-15T02:01:26.424Z,0.00
2023-03-15T02:02:26.459Z,0.00
2023-03-15T02:03:26.396Z,0.00
2023-03-15T02:04:26.405Z,0.00
2023-03-15T02:05:26.402Z,0.00
2023-03-15T02:06:26.406Z,0.00
2023-03-15T02:07:26.400Z,0.00
2023-03-15T02:08:26.412Z,0.00
2023-03-15T02:09:26.409Z,0.00
2023-03-15T02:10:26.399Z,0.00
2023-03-15T02:11:26.403Z,0.00
2023-03-15T02:12:26.411Z,0.00
2023-03-15T02:13:26.404Z,0.00
2023-03-15T02:14:26.412Z,0.00
2023-03-15T02:15:26.407Z,0.00
2023-03-15T02:16:26.508Z,0.00
2023-03-15T02:17:26.440Z,0.00
2023-03-15T02:18:26.411Z,0.00
2023-03-15T02:19:26.418Z,0.00
2023-03-15T02:20:26.412Z,0.00
2023-03-15T02:21:26.411Z,0.00
2023-03-15T02:22:26.413Z,0.00
2023-03-15T02:23:26.422Z,0.00
2023-03-15T02:24:26.423Z,0.00
2023-03-15T02:25:26.424Z,0.00
2023-03-15T02:26:26.416Z,0.00
2023-03-15T02:27:26.506Z,0.00
2023-03-15T02:28:26.427Z,0.00
2023-03-15T02:29:26.421Z,0.00
2023-03-15T02:30:26.421Z,0.00
2023-03-15T02:31:26.492Z,0.00
2023-03-15T02:32:26.466Z,0.00
2023-03-15T02:33:26.454Z,0.00
2023-03-15T02:34:26.431Z,0.00
2023-03-15T02:35:26.430Z,0.00
2023-03-15T02:36:26.426Z,0.00
2023-03-15T02:37:26.436Z,0.00
2023-03-15T02:38:26.434Z,0.00
2023-03-15T02:39:26.428Z,0.00
2023-03-15T02:40:26.429Z,0.00
2023-03-15T02:41:26.430Z,0.00
2023-03-15T02:42:26.437Z,0.00
2023-03-15T02:43:26.433Z,0.00
2023-03-15T02:44:26.432Z,0.00
2023-03-15T02:45:26.441Z,0.00
2023-03-15T02:46:26.558Z,0.00
2023-03-15T02:47:26.439Z,0.00
2023-03-15T02:48:26.439Z,0.00
2023-03-15T02:49:26.466Z,0.00
2023-03-15T02:50:26.442Z,0.00
2023-03-15T02:51:26.453Z,0.00
2023-03-15T02:52:26.456Z,0.00
2023-03-15T02:53:26.455Z,0.00
2023-03-15T02:54:26.445Z,0.00
2023-03-15T02:55:26.446Z,0.00
2023-03-15T02:56:26.454Z,0.00
2023-03-15T02:57:26.450Z,0.00
2023-03-15T02:58:26.455Z,0.00
2023-03-15T02:59:26.455Z,0.00
2023-03-15T03:00:26.454Z,0.00
2023-03-15T03:01:26.533Z,0.00
2023-03-15T03:02:26.534Z,0.00
2023-03-15T03:03:26.459Z,0.00
2023-03-15T03:04:26.450Z,0.00
2023-03-15T03:06:26.485Z,0.00
2023-03-15T03:07:26.463Z,0.00
2023-03-15T03:08:27.872Z,0.00
2023-03-15T03:09:26.458Z,0.00
2023-03-15T03:10:26.472Z,0.00
2023-03-15T03:11:26.458Z,0.00
2023-03-15T03:12:26.865Z,0.00
2023-03-15T03:13:26.462Z,0.00
2023-03-15T03:14:26.463Z,0.00
2023-03-15T03:15:26.471Z,0.00
2023-03-15T03:16:26.520Z,0.00
2023-03-15T03:17:26.471Z,0.00
2023-03-15T03:18:26.475Z,0.00
2023-03-15T03:19:26.473Z,0.00
2023-03-15T03:20:26.475Z,0.00
2023-03-15T03:21:26.483Z,0.00
2023-03-15T03:22:26.491Z,0.00
2023-03-15T03:23:26.478Z,0.00
2023-03-15T03:24:26.487Z,0.00
2023-03-15T03:25:26.666Z,0.00
2023-03-15T03:26:27.687Z,0.00
2023-03-15T03:27:26.472Z,0.00
2023-03-15T03:28:26.467Z,0.00
2023-03-15T03:29:26.468Z,0.00
2023-03-15T03:30:26.482Z,0.00
2023-03-15T03:31:26.474Z,0.00
2023-03-15T03:32:26.500Z,0.00
2023-03-15T03:33:26.470Z,0.00
2023-03-15T03:34:29.166Z,0.00
2023-03-15T03:35:26.483Z,0.00
2023-03-15T03:36:26.480Z,0.00
2023-03-15T03:37:26.485Z,0.00
2023-03-15T03:38:26.500Z,0.00
2023-03-15T03:39:26.482Z,0.00
2023-03-15T03:40:26.481Z,0.00
2023-03-15T03:41:27.090Z,0.00
2023-03-15T03:42:26.473Z,0.00
2023-03-15T03:43:26.482Z,0.00
2023-03-15T03:44:26.475Z,0.00
2023-03-15T03:45:26.483Z,0.00
2023-03-15T03:46:26.529Z,0.00
2023-03-15T03:47:26.485Z,0.00
2023-03-15T03:48:26.486Z,0.00
2023-03-15T03:49:26.486Z,0.00
2023-03-15T03:50:26.479Z,0.00
2023-03-15T03:51:26.486Z,0.00
2023-03-15T03:52:26.494Z,0.00
2023-03-15T03:53:26.494Z,0.00
2023-03-15T03:54:26.510Z,0.00
2023-03-15T03:55:26.484Z,0.00
2023-03-15T03:56:26.484Z,0.00
2023-03-15T03:57:26.493Z,0.00
2023-03-15T03:58:26.484Z,0.00
2023-03-15T03:59:26.494Z,0.00
2023-03-15T04:00:27.706Z,0.00
2023-03-15T04:01:29.106Z,0.00
2023-03-15T04:02:26.522Z,0.00
2023-03-15T04:03:26.486Z,0.00
2023-03-15T04:04:26.561Z,0.00
2023-03-15T04:05:26.498Z,0.00
2023-03-15T04:06:26.490Z,0.00
2023-03-15T04:07:26.493Z,0.00
2023-03-15T04:08:26.500Z,0.00
2023-03-15T04:09:27.909Z,0.00
2023-03-15T04:10:26.525Z,0.00
2023-03-15T04:11:26.495Z,0.00
2023-03-15T04:12:26.577Z,0.00
2023-03-15T04:14:26.496Z,0.00
2023-03-15T04:15:26.499Z,0.00
2023-03-15T04:16:26.671Z,0.00
2023-03-15T04:17:26.504Z,0.00
2023-03-15T04:18:26.504Z,0.00
2023-03-15T04:19:26.497Z,0.00
2023-03-15T04:20:26.499Z,0.00
2023-03-15T04:21:26.500Z,0.00
2023-03-15T04:22:26.502Z,0.00
2023-03-15T04:23:26.506Z,0.00
2023-03-15T04:24:29.129Z,0.00
2023-03-15T04:25:26.533Z,0.00
2023-03-15T04:26:26.573Z,0.00
2023-03-15T04:27:26.512Z,0.00
2023-03-15T04:28:26.510Z,0.00
2023-03-15T04:29:26.507Z,0.00
2023-03-15T04:30:26.506Z,0.00
2023-03-15T04:31:26.545Z,0.00
2023-03-15T04:32:26.557Z,0.00
2023-03-15T04:33:29.136Z,0.00
2023-03-15T04:34:26.513Z,0.00
2023-03-15T04:35:29.133Z,0.00
2023-03-15T04:36:26.522Z,0.00
2023-03-15T04:37:26.520Z,0.00
2023-03-15T04:38:26.537Z,0.00
2023-03-15T04:39:26.520Z,0.00
2023-03-15T04:40:27.539Z,0.00
2023-03-15T04:41:26.523Z,0.00
2023-03-15T04:42:26.750Z,0.00
2023-03-15T04:43:26.522Z,0.00
2023-03-15T04:44:26.552Z,0.00
2023-03-15T04:45:26.526Z,0.00
2023-03-15T04:46:26.545Z,0.00
2023-03-15T04:47:26.548Z,0.00
2023-03-15T04:48:26.546Z,0.00
2023-03-15T04:49:26.548Z,0.00
2023-03-15T04:50:26.538Z,0.00
2023-03-15T04:51:26.535Z,0.00
2023-03-15T04:52:26.537Z,0.00
2023-03-15T04:53:26.537Z,0.00
2023-03-15T04:54:26.534Z,0.00
2023-03-15T04:55:26.555Z,0.00
2023-03-15T04:56:26.538Z,0.00
2023-03-15T04:57:26.534Z,0.00
2023-03-15T04:58:26.584Z,0.00
2023-03-15T04:59:26.541Z,4.00
2023-03-15T05:00:26.591Z,4.00
2023-03-15T05:01:26.546Z,0.00
2023-03-15T05:02:26.601Z,4.00
2023-03-15T05:03:26.551Z,4.00
2023-03-15T05:04:26.541Z,4.00
2023-03-15T05:05:26.543Z,8.00
2023-03-15T05:06:26.545Z,8.00
2023-03-15T05:07:26.555Z,8.00
2023-03-15T05:08:26.552Z,8.00
2023-03-15T05:09:26.551Z,12.00
2023-03-15T05:10:26.558Z,12.00
2023-03-15T05:11:26.560Z,16.00
2023-03-15T05:12:26.551Z,20.00
2023-03-15T05:13:26.549Z,24.00
2023-03-15T05:14:26.638Z,24.00
2023-03-15T05:15:26.640Z,32.00
2023-03-15T05:16:26.662Z,36.00
2023-03-15T05:17:26.558Z,44.00
2023-03-15T05:18:26.562Z,52.00
2023-03-15T05:19:26.556Z,56.00
2023-03-15T05:20:26.558Z,64.00
2023-03-15T05:21:26.565Z,76.00
2023-03-15T05:22:26.568Z,88.00
2023-03-15T05:23:26.570Z,96.00
2023-03-15T05:24:26.562Z,108.00
2023-03-15T05:25:26.570Z,124.00
2023-03-15T05:26:26.572Z,140.00
2023-03-15T05:27:26.580Z,156.00
2023-03-15T05:28:26.564Z,172.00
2023-03-15T05:29:26.570Z,184.00
2023-03-15T05:30:26.608Z,204.00
2023-03-15T05:31:26.591Z,220.00
2023-03-15T05:32:26.661Z,236.00
2023-03-15T05:33:26.572Z,252.00
2023-03-15T05:34:26.580Z,276.00
2023-03-15T05:35:26.776Z,300.00
2023-03-15T05:36:26.580Z,328.00
2023-03-15T05:37:26.582Z,356.00
2023-03-15T05:38:26.762Z,384.00
2023-03-15T05:39:26.578Z,416.00
2023-03-15T05:40:26.587Z,444.00
2023-03-15T05:41:26.584Z,480.00
2023-03-15T05:42:26.591Z,512.00
2023-03-15T05:43:26.592Z,540.00
2023-03-15T05:44:26.587Z,576.00
2023-03-15T05:45:26.584Z,620.00
2023-03-15T05:46:26.616Z,668.00
2023-03-15T05:47:26.589Z,732.00
2023-03-15T05:48:26.585Z,788.00
2023-03-15T05:49:26.608Z,844.00
2023-03-15T05:50:26.587Z,900.00
2023-03-15T05:51:26.603Z,952.00
2023-03-15T05:52:26.604Z,1016.00
2023-03-15T05:53:26.595Z,1092.00
2023-03-15T05:54:26.589Z,1164.00
2023-03-15T05:55:26.616Z,1224.00
2023-03-15T05:56:26.596Z,1268.00
2023-03-15T05:57:26.607Z,1280.00
2023-03-15T05:58:26.592Z,1224.00
2023-03-15T05:59:26.605Z,1264.00
2023-03-15T06:00:26.601Z,1288.00
2023-03-15T06:01:26.591Z,1324.00
2023-03-15T06:02:26.626Z,1380.00
2023-03-15T06:03:26.640Z,1408.00
2023-03-15T06:04:26.685Z,1432.00
2023-03-15T06:05:26.602Z,1504.00
2023-03-15T06:06:26.599Z,1556.00
2023-03-15T06:07:26.600Z,1600.00
2023-03-15T06:08:26.616Z,1700.00
2023-03-15T06:09:26.609Z,1860.00
2023-03-15T06:10:26.608Z,1852.00
2023-03-15T06:11:26.600Z,1716.00
2023-03-15T06:12:26.612Z,1564.00
2023-03-15T06:13:26.612Z,1496.00
2023-03-15T06:14:26.607Z,1312.00
2023-03-15T06:15:26.616Z,1356.00
2023-03-15T06:16:26.634Z,1272.00
2023-03-15T06:17:26.609Z,1228.00
2023-03-15T06:18:26.703Z,1148.00
2023-03-15T06:19:26.626Z,900.00
2023-03-15T06:20:26.617Z,944.00
2023-03-15T06:21:26.613Z,1048.00
2023-03-15T06:22:26.620Z,1128.00
2023-03-15T06:23:26.624Z,1252.00
2023-03-15T06:24:26.615Z,1216.00
2023-03-15T06:25:26.625Z,1296.00
2023-03-15T06:26:26.624Z,1408.00
2023-03-15T06:27:26.633Z,1444.00
2023-03-15T06:28:26.628Z,1732.00
2023-03-15T06:29:26.622Z,1856.00
2023-03-15T06:30:26.622Z,1944.00
2023-03-15T06:31:26.625Z,1824.00
2023-03-15T06:32:26.669Z,1832.00
2023-03-15T06:33:26.634Z,1972.00
2023-03-15T06:34:26.646Z,2272.00
2023-03-15T06:35:26.638Z,2336.00
2023-03-15T06:36:26.631Z,2068.00
2023-03-15T06:37:35.007Z,2188.00
2023-03-15T06:38:26.632Z,2328.00
2023-03-15T06:39:26.636Z,2464.00
2023-03-15T06:40:26.641Z,2692.00
2023-03-15T06:41:26.645Z,3340.00
2023-03-15T06:42:26.637Z,4364.00
2023-03-15T06:43:26.640Z,3880.00
2023-03-15T06:44:26.653Z,3104.00
2023-03-15T06:45:26.650Z,2396.00
2023-03-15T06:46:26.734Z,2188.00
2023-03-15T06:47:26.644Z,2308.00
2023-03-15T06:48:26.654Z,2300.00
2023-03-15T06:49:26.664Z,2228.00
2023-03-15T06:50:29.483Z,2356.00
2023-03-15T06:51:26.659Z,2772.00
2023-03-15T06:52:26.651Z,2888.00
2023-03-15T06:53:26.655Z,2752.00
2023-03-15T06:54:26.668Z,1900.00
2023-03-15T06:55:26.663Z,1224.00
2023-03-15T06:56:26.659Z,1008.00
2023-03-15T06:57:26.671Z,852.00
2023-03-15T06:58:26.695Z,812.00
2023-03-15T06:59:26.668Z,748.00
2023-03-15T07:00:26.671Z,724.00
2023-03-15T07:01:26.755Z,676.00
2023-03-15T07:02:26.866Z,660.00
2023-03-15T07:03:26.674Z,716.00
2023-03-15T07:04:26.673Z,700.00
2023-03-15T07:05:26.706Z,724.00
2023-03-15T07:06:26.704Z,824.00
2023-03-15T07:07:26.686Z,860.00
2023-03-15T07:08:26.688Z,800.00
2023-03-15T07:09:26.682Z,788.00
2023-03-15T07:10:26.684Z,820.00
2023-03-15T07:11:26.689Z,860.00
2023-03-15T07:12:26.697Z,988.00
2023-03-15T07:13:26.693Z,880.00
2023-03-15T07:14:26.701Z,928.00
2023-03-15T07:15:26.724Z,1240.00
2023-03-15T07:16:26.703Z,1924.00
2023-03-15T07:17:26.699Z,1984.00
2023-03-15T07:18:26.700Z,1872.00
2023-03-15T07:19:26.713Z,2092.00
2023-03-15T07:20:26.733Z,1992.00
2023-03-15T07:21:26.724Z,1796.00
2023-03-15T07:22:26.733Z,1712.00
2023-03-15T07:23:26.729Z,1560.00
2023-03-15T07:24:26.718Z,1736.00
2023-03-15T07:25:26.718Z,2444.00
2023-03-15T07:26:26.720Z,3112.00
2023-03-15T07:27:26.723Z,3384.00
2023-03-15T07:28:26.717Z,3000.00
2023-03-15T07:29:26.731Z,2796.00
2023-03-15T07:30:26.729Z,3288.00
2023-03-15T07:31:26.722Z,3948.00
2023-03-15T07:32:26.820Z,3900.00
2023-03-15T07:33:26.880Z,3836.00
2023-03-15T07:34:26.735Z,3976.00
2023-03-15T07:35:26.743Z,3556.00
2023-03-15T07:36:26.732Z,3504.00
2023-03-15T07:37:26.737Z,3652.00
2023-03-15T07:38:26.770Z,3720.00
2023-03-15T07:39:26.742Z,4120.00
2023-03-15T07:40:26.764Z,4468.00
2023-03-15T07:41:26.750Z,5444.00
2023-03-15T07:42:26.740Z,7692.00
2023-03-15T07:43:26.752Z,10192.00
2023-03-15T07:44:26.750Z,11240.00
2023-03-15T07:45:26.755Z,10052.00
2023-03-15T07:46:26.816Z,8172.00
2023-03-15T07:47:26.758Z,6540.00
2023-03-15T07:48:26.752Z,5612.00
2023-03-15T07:49:26.761Z,5548.00
2023-03-15T07:50:26.764Z,5332.00
2023-03-15T07:51:26.769Z,5208.00
2023-03-15T07:52:26.759Z,6232.00
2023-03-15T07:53:26.771Z,8580.00
2023-03-15T07:54:28.778Z,8996.00
2023-03-15T07:55:26.778Z,6600.00
2023-03-15T07:56:26.777Z,5656.00
2023-03-15T07:57:28.881Z,5460.00
2023-03-15T07:58:26.781Z,5532.00
2023-03-15T07:59:26.784Z,6452.00
2023-03-15T08:00:26.794Z,7260.00
2023-03-15T08:01:26.797Z,6728.00
2023-03-15T08:02:28.499Z,6468.00
2023-03-15T08:03:27.004Z,8112.00
2023-03-15T08:04:26.797Z,9056.00
2023-03-15T08:05:29.046Z,9900.00
2023-03-15T08:06:26.793Z,10840.00
2023-03-15T08:07:26.803Z,24672.00
2023-03-15T08:08:26.800Z,18720.00
2023-03-15T08:09:26.807Z,24672.00
2023-03-15T08:10:26.827Z,20288.00
2023-03-15T08:11:26.814Z,13592.00
2023-03-15T08:12:26.818Z,23424.00
2023-03-15T08:13:26.820Z,20480.00
2023-03-15T08:14:26.825Z,24960.00
2023-03-15T08:15:26.821Z,9876.00
2023-03-15T08:16:27.008Z,33856.00
2023-03-15T08:17:26.841Z,33888.00
2023-03-15T08:18:26.839Z,29952.00
2023-03-15T08:19:26.852Z,34528.00
2023-03-15T08:20:29.596Z,35360.00
2023-03-15T08:21:26.862Z,35680.00
2023-03-15T08:25:55.329Z,36768.00
2023-03-15T08:26:55.304Z,35744.00
2023-03-15T08:27:55.303Z,37888.00
2023-03-15T08:28:55.307Z,37952.00
2023-03-15T08:29:55.319Z,40064.00
2023-03-15T08:30:55.322Z,43360.00
2023-03-15T08:31:55.436Z,26368.00
2023-03-15T08:40:37.009Z,21120.00
2023-03-15T08:41:36.168Z,20864.00
2023-03-15T08:42:36.145Z,8156.00
2023-03-15T08:43:36.169Z,6532.00
2023-03-15T08:44:36.427Z,5280.00
2023-03-15T08:45:50.949Z,4068.00
2023-03-15T08:46:36.337Z,3368.00
2023-03-15T08:47:36.184Z,3168.00
2023-03-15T08:48:36.195Z,3228.00
2023-03-15T08:49:36.201Z,3188.00
2023-03-15T08:50:36.209Z,3300.00
2023-03-15T08:51:36.224Z,3532.00
2023-03-15T08:52:36.214Z,4584.00
2023-03-15T08:53:36.217Z,6092.00
2023-03-15T08:54:36.229Z,7768.00
2023-03-15T08:55:36.242Z,8940.00
2023-03-15T08:56:36.242Z,17856.00
2023-03-15T08:57:36.277Z,52224.00
2023-03-15T08:58:36.252Z,51968.00
2023-03-15T08:59:36.260Z,52224.00
2023-03-15T09:00:36.256Z,52256.00
2023-03-15T09:01:36.267Z,53088.00
2023-03-15T09:02:36.336Z,8452.00
2023-03-15T09:03:36.284Z,7628.00
2023-03-15T09:04:36.371Z,47008.00
2023-03-15T09:05:36.326Z,54720.00
2023-03-15T09:06:36.296Z,56192.00
2023-03-15T09:07:36.305Z,58016.00
2023-03-15T09:08:36.305Z,60448.00
2023-03-15T09:09:36.326Z,61664.00
2023-03-15T09:10:36.330Z,65312.00
2023-03-15T09:11:36.323Z,40832.00
2023-03-15T09:12:36.345Z,17664.00
2023-03-15T09:13:36.371Z,18592.00
2023-03-15T09:14:36.349Z,19040.00
2023-03-15T09:15:36.360Z,41632.00
2023-03-15T09:23:13.937Z,6196.00
2023-03-15T09:24:13.954Z,6736.00
2023-03-15T09:25:13.957Z,8088.00
2023-03-15T09:26:13.969Z,9348.00
2023-03-15T09:27:13.968Z,9504.00
2023-03-15T09:28:13.999Z,9372.00
2023-03-15T09:29:14.014Z,11516.00
2023-03-15T09:30:13.992Z,16016.00
2023-03-15T09:31:14.088Z,38112.00
2023-03-15T09:32:14.012Z,66688.00
2023-03-15T09:33:14.013Z,68608.00
2023-03-15T09:34:14.025Z,68448.00
2023-03-15T09:35:14.032Z,72576.00
2023-03-15T09:36:14.049Z,79296.00
2023-03-15T09:37:14.042Z,80320.00
2023-03-15T09:39:06.621Z,19200.00
2023-03-15T09:40:06.646Z,11540.00
2023-03-15T09:41:06.673Z,7980.00
2023-03-15T09:42:06.754Z,6304.00
2023-03-15T09:43:06.660Z,6300.00
2023-03-15T09:44:06.667Z,7348.00
2023-03-15T09:45:06.709Z,8412.00
2023-03-15T09:46:06.746Z,9652.00
2023-03-15T09:47:06.685Z,11484.00
2023-03-15T09:48:06.696Z,13868.00
2023-03-15T09:49:06.753Z,74624.00
2023-03-15T09:50:06.708Z,82912.00
2023-03-15T09:51:06.725Z,72864.00
2023-03-15T09:52:06.737Z,50016.00
2023-03-15T09:53:06.734Z,15100.00
2023-03-15T09:54:06.754Z,11932.00
2023-03-15T09:55:06.759Z,12560.00
2023-03-15T09:56:06.769Z,13740.00
2023-03-15T09:57:06.775Z,16448.00
2023-03-15T09:58:06.797Z,23328.00
2023-03-15T09:59:06.805Z,73152.00
2023-03-15T10:00:06.803Z,84128.00
2023-03-15T10:01:06.998Z,21920.00
2023-03-15T10:02:06.814Z,21728.00
2023-03-15T10:03:06.846Z,21280.00
2023-03-15T10:04:06.855Z,17952.00
2023-03-15T10:05:06.846Z,13220.00
2023-03-15T10:06:06.850Z,10728.00
2023-03-15T10:07:06.863Z,9660.00
2023-03-15T10:08:06.864Z,10284.00
2023-03-15T10:09:06.888Z,10804.00
2023-03-15T10:10:06.884Z,10988.00
2023-03-15T10:15:56.196Z,77984.00
2023-03-15T10:16:56.168Z,79712.00
2023-03-15T10:17:56.156Z,78752.00
2023-03-15T10:18:56.155Z,80032.00
2023-03-15T10:19:56.167Z,79680.00
2023-03-15T10:20:56.172Z,80928.00
2023-03-15T10:21:56.184Z,82080.00
2023-03-15T10:22:56.199Z,85120.00
2023-03-15T10:25:08.805Z,72320.00
2023-03-15T10:26:08.829Z,35936.00
2023-03-15T10:27:08.826Z,91392.00
2023-03-15T10:28:08.838Z,58112.00
2023-03-15T10:29:08.856Z,33152.00
2023-03-15T10:30:08.868Z,41280.00
2023-03-15T10:31:10.357Z,19808.00
2023-03-15T10:32:09.032Z,15512.00
2023-03-15T10:33:08.915Z,10460.00
2023-03-15T10:34:08.916Z,9652.00
2023-03-15T10:35:08.932Z,9828.00
2023-03-15T10:36:11.405Z,9412.00
2023-03-15T10:37:08.944Z,8996.00
2023-03-15T10:38:08.956Z,9440.00
2023-03-15T10:39:08.967Z,73216.00
2023-03-15T10:40:08.984Z,81344.00
2023-03-15T10:41:10.003Z,81472.00
2023-03-15T10:42:09.008Z,83456.00
2023-03-15T10:43:10.261Z,87744.00
2023-03-15T10:44:09.018Z,90752.00
2023-03-15T10:45:09.041Z,72320.00
2023-03-15T10:46:09.143Z,56256.00
2023-03-15T10:47:22.168Z,39488.00
2023-03-15T10:48:09.100Z,92896.00
2023-03-15T10:49:09.134Z,80416.00
2023-03-15T10:50:09.100Z,23840.00
2023-03-15T10:51:09.112Z,12196.00
2023-03-15T10:52:09.117Z,10668.00
2023-03-15T10:53:09.145Z,11252.00
2023-03-15T10:54:09.141Z,13400.00
2023-03-15T10:55:09.170Z,14976.00
2023-03-15T10:56:09.173Z,15212.00
2023-03-15T10:57:09.180Z,14408.00
2023-03-15T10:58:09.199Z,13040.00
2023-03-15T10:59:12.789Z,59712.00
2023-03-15T11:00:09.220Z,94400.00
2023-03-15T11:01:09.231Z,84576.00
2023-03-15T11:02:09.388Z,96128.00
2023-03-15T11:03:09.277Z,94304.00
2023-03-15T11:04:09.286Z,96160.00
2023-03-15T11:05:09.268Z,25056.00
2023-03-15T11:06:09.284Z,38368.00
2023-03-15T11:07:09.303Z,18240.00
2023-03-15T11:08:09.306Z,15192.00
2023-03-15T11:09:09.329Z,21504.00
2023-03-15T11:10:09.341Z,8856.00
2023-03-15T11:11:09.351Z,6432.00
2023-03-15T11:12:09.365Z,5068.00
2023-03-15T11:13:09.384Z,4380.00
2023-03-15T11:14:09.384Z,4328.00
2023-03-15T11:15:09.398Z,4952.00
2023-03-15T11:16:09.452Z,6180.00
2023-03-15T11:17:09.417Z,8276.00
2023-03-15T11:18:09.609Z,11188.00
2023-03-15T11:19:09.436Z,18976.00
2023-03-15T11:20:09.478Z,16024.00
2023-03-15T11:21:09.454Z,17152.00
2023-03-15T11:22:09.462Z,17312.00
2023-03-15T11:23:09.478Z,18016.00
2023-03-15T11:24:09.475Z,62752.00
2023-03-15T11:25:09.491Z,87968.00
2023-03-15T11:26:09.617Z,90368.00
2023-03-15T11:27:09.502Z,91232.00
2023-03-15T11:28:09.507Z,90272.00
2023-03-15T11:29:09.522Z,90080.00
2023-03-15T11:30:09.540Z,90880.00
2023-03-15T11:31:09.602Z,93408.00
2023-03-15T11:32:09.548Z,96128.00
2023-03-15T11:33:09.579Z,94048.00
2023-03-15T11:34:09.571Z,93504.00
2023-03-15T11:35:09.599Z,73120.00
2023-03-15T11:36:12.246Z,63232.00
2023-03-15T11:37:11.593Z,19424.00
2023-03-15T11:38:15.455Z,14940.00
2023-03-15T11:39:09.645Z,14492.00
2023-03-15T11:40:12.142Z,9788.00
2023-03-15T11:41:09.684Z,8036.00
2023-03-15T11:42:11.175Z,6880.00
2023-03-15T11:43:52.243Z,5952.00
2023-03-15T11:44:52.263Z,6284.00
2023-03-15T11:45:52.354Z,7508.00
2023-03-15T11:46:52.276Z,49568.00
2023-03-15T11:47:52.297Z,88384.00
2023-03-15T11:48:52.305Z,88832.00
2023-03-15T11:49:52.321Z,89120.00
2023-03-15T11:50:52.332Z,10500.00
2023-03-15T11:51:52.358Z,11688.00
2023-03-15T11:52:52.354Z,89088.00
2023-03-15T11:53:52.362Z,87904.00
2023-03-15T11:54:52.378Z,86752.00
2023-03-15T11:55:52.392Z,86848.00
2023-03-15T11:56:52.403Z,86944.00
2023-03-15T11:58:34.965Z,85664.00
2023-03-15T11:59:35.116Z,87296.00
2023-03-15T12:00:34.991Z,88160.00
2023-03-15T12:01:35.009Z,87968.00
2023-03-15T12:02:35.040Z,88160.00
2023-03-15T12:03:35.088Z,87808.00
2023-03-15T12:04:35.041Z,89152.00
2023-03-15T12:05:35.063Z,89216.00
2023-03-15T12:06:35.079Z,89344.00
2023-03-15T12:07:35.154Z,89216.00
2023-03-15T12:08:38.545Z,88672.00
2023-03-15T12:09:35.127Z,90688.00
2023-03-15T12:10:35.163Z,92288.00
2023-03-15T12:11:35.161Z,95392.00
2023-03-15T12:20:05.368Z,93312.00
2023-03-15T12:47:32.277Z,2560.00
2023-03-15T12:48:32.137Z,2788.00
2023-03-15T12:49:34.782Z,2932.00
2023-03-15T12:50:32.162Z,2976.00
2023-03-15T12:51:32.177Z,2984.00
2023-03-15T12:52:32.183Z,3316.00
2023-03-15T12:53:32.198Z,4912.00
2023-03-15T12:54:32.196Z,6884.00
2023-03-15T12:55:32.215Z,8112.00
2023-03-15T12:56:32.226Z,8484.00
2023-03-15T12:57:32.228Z,8768.00
2023-03-15T12:58:32.238Z,8808.00
2023-03-15T12:59:32.257Z,8744.00
2023-03-15T13:00:32.248Z,8704.00
2023-03-15T13:01:32.289Z,8712.00
2023-03-15T13:02:42.900Z,8592.00
2023-03-15T13:03:32.357Z,8236.00
2023-03-15T13:04:32.287Z,7768.00
2023-03-15T13:05:32.298Z,7508.00
2023-03-15T13:06:32.308Z,7616.00
2023-03-15T13:07:36.868Z,7996.00
2023-03-15T13:08:32.332Z,8900.00
2023-03-15T13:09:32.324Z,10360.00
2023-03-15T13:10:32.334Z,11956.00
2023-03-15T13:11:32.348Z,14396.00
2023-03-15T13:12:32.350Z,43264.00
2023-03-15T13:13:32.358Z,39712.00
2023-03-15T13:14:32.363Z,37120.00
2023-03-15T13:15:32.367Z,46112.00
2023-03-15T13:16:32.384Z,67296.00
2023-03-15T13:17:32.417Z,79584.00
2023-03-15T13:18:32.395Z,78336.00
2023-03-15T13:19:32.428Z,81856.00
2023-03-15T13:20:32.423Z,81216.00
2023-03-15T13:21:32.448Z,81056.00
2023-03-15T13:22:32.430Z,81216.00
2023-03-15T13:23:32.434Z,80608.00
2023-03-15T13:31:17.615Z,74176.00
2023-03-15T13:32:17.520Z,73568.00
2023-03-15T13:33:17.525Z,73184.00
2023-03-15T13:34:17.546Z,73568.00
2023-03-15T13:35:17.581Z,74528.00
2023-03-15T13:36:17.569Z,74688.00
2023-03-15T13:37:17.582Z,74944.00
2023-03-15T14:36:39.904Z,10372.00
2023-03-15T14:37:39.885Z,7240.00